createdAt,value
2019-04-05T00:00:05.273Z,48.80
2019-04-05T00:01:05.268Z,48.80
2019-04-05T00:02:05.250Z,48.80
2019-04-05T00:03:05.237Z,48.80
2019-04-05T00:04:05.259Z,48.80
2019-04-05T00:05:05.222Z,48.80
2019-04-05T00:06:05.213Z,48.80
2019-04-05T00:07:05.206Z,48.80
2019-04-05T00:08:05.188Z,48.80
2019-04-05T00:09:05.211Z,48.80
2019-04-05T00:10:05.164Z,48.80
2019-04-05T00:11:05.159Z,48.80
2019-04-05T00:12:05.142Z,48.80
2019-04-05T00:13:05.137Z,48.80
2019-04-05T00:14:05.157Z,48.80
2019-04-05T00:15:15.134Z,48.80
2019-04-05T00:16:06.105Z,48.80
2019-04-05T00:17:05.088Z,48.90
2019-04-05T00:18:05.082Z,48.90
2019-04-05T00:19:05.072Z,48.90
2019-04-05T00:20:05.067Z,48.80
2019-04-05T00:21:05.094Z,48.90
2019-04-05T00:22:05.041Z,48.90
2019-04-05T00:23:05.031Z,48.90
2019-04-05T00:24:05.016Z,48.90
2019-04-05T00:25:05.009Z,48.90
2019-04-05T00:26:04.998Z,48.90
2019-04-05T00:27:05.019Z,48.90
2019-04-05T00:28:04.975Z,48.90
2019-04-05T00:29:04.966Z,48.90
2019-04-05T00:30:04.958Z,48.90
2019-04-05T00:31:04.939Z,48.90
2019-04-05T00:32:04.963Z,48.90
2019-04-05T00:33:04.924Z,48.90
2019-04-05T00:34:04.926Z,48.90
2019-04-05T00:35:04.908Z,48.90
2019-04-05T00:36:04.930Z,48.80
2019-04-05T00:37:04.885Z,48.80
2019-04-05T00:38:04.874Z,48.80
2019-04-05T00:39:04.868Z,48.80
2019-04-05T00:40:04.851Z,48.80
2019-04-05T00:41:04.877Z,48.80
2019-04-05T00:42:04.824Z,48.80
2019-04-05T00:43:04.815Z,48.80
2019-04-05T00:44:04.813Z,48.80
2019-04-05T00:45:04.796Z,48.80
2019-04-05T00:46:04.789Z,48.80
2019-04-05T00:47:04.822Z,48.80
2019-04-05T00:48:04.775Z,48.80
2019-04-05T00:49:04.754Z,48.80
2019-04-05T00:50:04.745Z,48.80
2019-04-05T00:51:04.731Z,48.80
2019-04-05T00:52:04.721Z,48.80
2019-04-05T00:53:04.746Z,48.80
2019-04-05T00:54:04.697Z,48.80
2019-04-05T00:55:04.690Z,48.80
2019-04-05T00:56:04.675Z,48.80
2019-04-05T00:57:04.673Z,48.80
2019-04-05T00:58:04.695Z,48.80
2019-04-05T00:59:04.651Z,48.80
2019-04-05T01:00:04.647Z,48.80
2019-04-05T01:01:04.631Z,48.80
2019-04-05T01:02:04.620Z,48.80
2019-04-05T01:03:04.608Z,48.80
2019-04-05T01:04:04.843Z,48.80
2019-04-05T01:05:04.585Z,48.80
2019-04-05T01:06:04.572Z,48.80
2019-04-05T01:07:04.561Z,48.80
2019-04-05T01:08:04.548Z,48.80
2019-04-05T01:09:04.538Z,48.80
2019-04-05T01:10:04.757Z,48.80
2019-04-05T01:11:04.520Z,48.80
2019-04-05T01:12:04.509Z,48.70
2019-04-05T01:13:04.503Z,48.70
2019-04-05T01:14:04.485Z,48.70
2019-04-05T01:15:04.477Z,48.80
2019-04-05T01:16:04.502Z,48.80
2019-04-05T01:17:04.459Z,48.70
2019-04-05T01:18:04.450Z,48.70
2019-04-05T01:19:04.437Z,48.70
2019-04-05T01:20:04.426Z,48.70
2019-04-05T01:21:04.411Z,48.70
2019-04-05T01:22:04.441Z,48.70
2019-04-05T01:23:04.394Z,48.70
2019-04-05T01:24:04.385Z,48.70
2019-04-05T01:25:04.376Z,48.70
2019-04-05T01:26:04.360Z,48.70
2019-04-05T01:27:04.396Z,48.70
2019-04-05T01:28:04.341Z,48.70
2019-04-05T01:29:04.335Z,48.70
2019-04-05T01:30:04.316Z,48.70
2019-04-05T01:31:04.305Z,48.70
2019-04-05T01:32:04.296Z,48.70
2019-04-05T01:33:04.324Z,48.70
2019-04-05T01:34:05.706Z,48.70
2019-04-05T01:35:04.269Z,48.70
2019-04-05T01:36:04.255Z,48.70
2019-04-05T01:37:04.246Z,48.70
2019-04-05T01:38:04.272Z,48.70
2019-04-05T01:39:04.224Z,48.70
2019-04-05T01:40:04.212Z,48.70
2019-04-05T01:41:04.237Z,48.70
2019-04-05T01:42:04.191Z,48.70
2019-04-05T01:43:04.187Z,48.70
2019-04-05T01:44:04.175Z,48.70
2019-04-05T01:45:04.160Z,48.70
2019-04-05T01:46:04.182Z,48.70
2019-04-05T01:47:04.137Z,48.70
2019-04-05T01:48:04.128Z,48.70
2019-04-05T01:49:04.349Z,48.70
2019-04-05T01:50:04.109Z,48.70
2019-04-05T01:51:04.102Z,48.70
2019-04-05T01:52:04.089Z,48.60
2019-04-05T01:53:04.079Z,48.70
2019-04-05T01:54:04.068Z,48.70
2019-04-05T01:55:04.091Z,48.60
2019-04-05T01:56:04.043Z,48.60
2019-04-05T01:57:04.032Z,48.70
2019-04-05T01:58:04.024Z,48.60
2019-04-05T01:59:04.008Z,48.70
2019-04-05T02:00:04.004Z,48.60
2019-04-05T02:01:04.025Z,48.60
2019-04-05T02:02:03.979Z,48.60
2019-04-05T02:03:04.019Z,48.60
2019-04-05T02:04:03.955Z,48.70
2019-04-05T02:05:03.950Z,48.72
2019-04-05T02:06:03.934Z,48.72
2019-04-05T02:07:03.930Z,48.70
2019-04-05T02:08:03.934Z,48.70
2019-04-05T02:09:03.940Z,48.70
2019-04-05T02:10:03.891Z,48.70
2019-04-05T02:11:03.888Z,48.70
2019-04-05T02:12:03.870Z,48.70
2019-04-05T02:13:03.864Z,48.70
2019-04-05T02:14:03.899Z,48.70
2019-04-05T02:15:03.843Z,48.70
2019-04-05T02:16:06.455Z,48.70
2019-04-05T02:17:03.821Z,48.70
2019-04-05T02:18:03.811Z,48.70
2019-04-05T02:19:03.799Z,48.70
2019-04-05T02:20:03.829Z,48.70
2019-04-05T02:21:03.782Z,48.72
2019-04-05T02:22:03.764Z,48.70
2019-04-05T02:23:03.755Z,48.72
2019-04-05T02:24:03.743Z,48.70
2019-04-05T02:25:03.739Z,48.72
2019-04-05T02:26:03.766Z,48.72
2019-04-05T02:27:03.759Z,48.72
2019-04-05T02:28:03.718Z,48.72
2019-04-05T02:29:03.703Z,48.72
2019-04-05T02:30:03.687Z,48.72
2019-04-05T02:31:03.674Z,48.72
2019-04-05T02:32:03.665Z,48.72
2019-04-05T02:33:03.682Z,48.72
2019-04-05T02:34:03.650Z,48.63
2019-04-05T02:35:03.633Z,48.70
2019-04-05T02:36:03.625Z,48.72
2019-04-05T02:37:03.610Z,48.72
2019-04-05T02:38:03.618Z,48.72
2019-04-05T02:39:03.618Z,48.72
2019-04-05T02:40:03.576Z,48.72
2019-04-05T02:41:03.565Z,48.72
2019-04-05T02:42:03.568Z,48.72
2019-04-05T02:43:03.580Z,48.72
2019-04-05T02:44:03.545Z,48.72
2019-04-05T02:45:03.529Z,48.72
2019-04-05T02:46:03.522Z,48.72
2019-04-05T02:47:03.502Z,48.72
2019-04-05T02:48:03.566Z,48.72
2019-04-05T02:49:03.525Z,48.72
2019-04-05T02:50:03.477Z,48.72
2019-04-05T02:51:03.694Z,48.72
2019-04-05T02:52:03.451Z,48.72
2019-04-05T02:53:03.441Z,48.72
2019-04-05T02:54:03.433Z,48.72
2019-04-05T02:55:03.428Z,48.72
2019-04-05T02:56:03.662Z,48.72
2019-04-05T02:57:03.453Z,48.72
2019-04-05T02:58:03.399Z,48.63
2019-04-05T02:59:03.378Z,48.63
2019-04-05T03:00:03.370Z,48.63
2019-04-05T03:01:03.381Z,48.63
2019-04-05T03:02:03.350Z,48.63
2019-04-05T03:03:03.381Z,48.63
2019-04-05T03:04:03.325Z,48.63
2019-04-05T03:05:03.309Z,48.63
2019-04-05T03:06:03.306Z,48.63
2019-04-05T03:07:03.293Z,48.63
2019-04-05T03:08:03.317Z,48.63
2019-04-05T03:09:03.276Z,48.63
2019-04-05T03:10:03.277Z,48.63
2019-04-05T03:11:03.273Z,48.63
2019-04-05T03:12:03.258Z,48.63
2019-04-05T03:13:03.240Z,48.63
2019-04-05T03:14:03.253Z,48.63
2019-04-05T03:15:03.212Z,48.63
2019-04-05T03:16:03.195Z,48.63
2019-04-05T03:17:03.187Z,48.63
2019-04-05T03:18:03.187Z,48.63
2019-04-05T03:19:03.201Z,48.63
2019-04-05T03:20:03.164Z,48.63
2019-04-05T03:21:03.161Z,48.63
2019-04-05T03:22:03.188Z,48.63
2019-04-05T03:23:03.122Z,48.63
2019-04-05T03:24:03.115Z,48.63
2019-04-05T03:25:03.105Z,48.63
2019-04-05T03:26:03.101Z,48.63
2019-04-05T03:27:03.088Z,48.52
2019-04-05T03:28:03.125Z,48.52
2019-04-05T03:29:03.071Z,48.52
2019-04-05T03:30:03.073Z,48.52
2019-04-05T03:31:03.081Z,48.52
2019-04-05T03:32:03.031Z,48.52
2019-04-05T03:33:03.025Z,48.52
2019-04-05T03:34:03.071Z,48.52
2019-04-05T03:35:03.015Z,48.52
2019-04-05T03:36:02.988Z,48.52
2019-04-05T03:37:02.990Z,48.52
2019-04-05T03:38:02.969Z,48.52
2019-04-05T03:39:02.960Z,48.52
2019-04-05T03:40:02.985Z,48.52
2019-04-05T03:41:02.936Z,48.52
2019-04-05T03:42:02.920Z,48.52
2019-04-05T03:43:02.915Z,48.52
2019-04-05T03:44:02.938Z,48.52
2019-04-05T03:45:02.925Z,48.52
2019-04-05T03:46:02.884Z,48.52
2019-04-05T03:47:02.874Z,48.52
2019-04-05T03:48:02.862Z,48.52
2019-04-05T03:49:02.871Z,48.52
2019-04-05T03:50:02.842Z,48.43
2019-04-05T03:51:02.908Z,48.43
2019-04-05T03:52:02.852Z,48.43
2019-04-05T03:53:02.809Z,48.43
2019-04-05T03:54:02.806Z,48.43
2019-04-05T03:55:02.791Z,48.43
2019-04-05T03:56:02.777Z,48.43
2019-04-05T03:57:02.772Z,48.43
2019-04-05T03:58:02.805Z,48.43
2019-04-05T03:59:02.742Z,48.43
2019-04-05T04:00:02.754Z,48.43
2019-04-05T04:01:02.731Z,48.43
2019-04-05T04:02:02.715Z,48.43
2019-04-05T04:03:02.716Z,48.43
2019-04-05T04:04:02.727Z,48.43
2019-04-05T04:05:02.680Z,48.43
2019-04-05T04:06:02.669Z,48.43
2019-04-05T04:07:02.671Z,48.43
2019-04-05T04:08:02.658Z,48.43
2019-04-05T04:09:02.677Z,48.43
2019-04-05T04:10:02.633Z,48.43
2019-04-05T04:11:02.624Z,48.43
2019-04-05T04:12:02.655Z,48.43
2019-04-05T04:13:02.598Z,48.43
2019-04-05T04:14:02.618Z,48.43
2019-04-05T04:15:02.582Z,48.43
2019-04-05T04:16:02.577Z,48.43
2019-04-05T04:17:11.994Z,48.43
2019-04-05T04:18:03.562Z,48.43
2019-04-05T04:19:02.537Z,48.43
2019-04-05T04:20:02.565Z,48.43
2019-04-05T04:21:02.520Z,48.43
2019-04-05T04:22:02.507Z,48.43
2019-04-05T04:23:02.503Z,48.43
2019-04-05T04:24:02.481Z,48.43
2019-04-05T04:25:02.697Z,48.43
2019-04-05T04:26:02.459Z,48.43
2019-04-05T04:27:02.452Z,48.43
2019-04-05T04:28:02.438Z,48.43
2019-04-05T04:29:02.426Z,48.43
2019-04-05T04:30:02.442Z,48.43
2019-04-05T04:31:02.443Z,48.43
2019-04-05T04:32:02.397Z,48.43
2019-04-05T04:33:02.391Z,48.43
2019-04-05T04:34:02.382Z,48.43
2019-04-05T04:35:02.376Z,48.43
2019-04-05T04:36:02.399Z,48.43
2019-04-05T04:37:02.348Z,48.43
2019-04-05T04:38:02.342Z,48.43
2019-04-05T04:39:02.326Z,48.43
2019-04-05T04:40:02.342Z,48.43
2019-04-05T04:41:02.314Z,48.43
2019-04-05T04:42:02.332Z,48.43
2019-04-05T04:43:02.291Z,48.43
2019-04-05T04:44:02.273Z,48.43
2019-04-05T04:45:11.992Z,48.43
2019-04-05T04:46:03.248Z,48.43
2019-04-05T04:47:02.279Z,48.32
2019-04-05T04:48:02.232Z,48.32
2019-04-05T04:49:02.222Z,48.32
2019-04-05T04:50:02.237Z,48.32
2019-04-05T04:51:02.196Z,48.32
2019-04-05T04:52:02.190Z,48.43
2019-04-05T04:53:02.219Z,48.43
2019-04-05T04:54:02.169Z,48.43
2019-04-05T04:55:02.176Z,48.43
2019-04-05T04:56:02.146Z,48.43
2019-04-05T04:57:02.140Z,48.43
2019-04-05T04:58:02.123Z,48.43
2019-04-05T04:59:02.154Z,48.43
2019-04-05T05:00:02.107Z,48.43
2019-04-05T05:01:02.098Z,48.43
2019-04-05T05:02:02.086Z,48.43
2019-04-05T05:03:02.092Z,48.43
2019-04-05T05:04:02.065Z,48.43
2019-04-05T05:05:02.098Z,48.43
2019-04-05T05:06:02.039Z,48.43
2019-04-05T05:07:02.048Z,48.43
2019-04-05T05:08:02.018Z,48.43
2019-04-05T05:09:02.009Z,48.32
2019-04-05T05:10:03.471Z,48.32
2019-04-05T05:11:13.678Z,48.32
2019-04-05T05:12:02.979Z,48.32
2019-04-05T05:13:01.982Z,48.32
2019-04-05T05:14:01.957Z,48.32
2019-04-05T05:15:01.954Z,48.32
2019-04-05T05:16:01.935Z,48.32
2019-04-05T05:17:01.965Z,48.32
2019-04-05T05:18:01.919Z,48.32
2019-04-05T05:19:01.916Z,48.32
2019-04-05T05:20:01.933Z,48.32
2019-04-05T05:21:01.886Z,48.32
2019-04-05T05:22:01.912Z,48.32
2019-04-05T05:23:01.892Z,48.32
2019-04-05T05:24:01.866Z,48.30
2019-04-05T05:25:01.844Z,48.30
2019-04-05T05:26:01.834Z,48.30
2019-04-05T05:27:01.820Z,48.30
2019-04-05T05:28:02.042Z,48.30
2019-04-05T05:29:01.805Z,48.30
2019-04-05T05:30:01.792Z,48.30
2019-04-05T05:31:01.779Z,48.30
2019-04-05T05:32:01.775Z,48.20
2019-04-05T05:33:01.758Z,48.30
2019-04-05T05:34:01.802Z,48.20
2019-04-05T05:35:02.577Z,48.20
2019-04-05T05:36:01.745Z,48.20
2019-04-05T05:37:01.715Z,48.20
2019-04-05T05:38:01.710Z,48.20
2019-04-05T05:39:01.701Z,48.20
2019-04-05T05:40:01.724Z,48.20
2019-04-05T05:41:01.675Z,48.20
2019-04-05T05:42:01.670Z,48.20
2019-04-05T05:43:01.660Z,48.20
2019-04-05T05:44:01.649Z,48.20
2019-04-05T05:45:01.795Z,48.20
2019-04-05T05:46:01.674Z,48.10
2019-04-05T05:47:01.611Z,48.10
2019-04-05T05:48:01.608Z,48.10
2019-04-05T05:49:01.593Z,48.10
2019-04-05T05:50:01.580Z,48.10
2019-04-05T05:51:01.621Z,48.10
2019-04-05T05:52:01.558Z,48.10
2019-04-05T05:53:01.548Z,48.10
2019-04-05T05:54:01.549Z,48.10
2019-04-05T05:55:01.532Z,48.10
2019-04-05T05:56:01.517Z,48.10
2019-04-05T05:57:01.547Z,48.10
2019-04-05T05:58:01.501Z,48.10
2019-04-05T05:59:01.493Z,48.10
2019-04-05T06:00:01.477Z,48.10
2019-04-05T06:01:01.493Z,48.10
2019-04-05T06:02:01.488Z,48.10
2019-04-05T06:03:01.461Z,48.10
2019-04-05T06:04:01.434Z,48.10
2019-04-05T06:05:01.432Z,48.10
2019-04-05T06:06:04.585Z,48.00
2019-04-05T06:07:01.642Z,48.00
2019-04-05T06:08:01.592Z,48.10
2019-04-05T06:09:01.389Z,48.00
2019-04-05T06:10:01.379Z,48.00
2019-04-05T06:11:01.364Z,48.00
2019-04-05T06:12:01.361Z,48.00
2019-04-05T06:13:01.374Z,48.00
2019-04-05T06:14:01.376Z,48.00
2019-04-05T06:15:01.322Z,48.00
2019-04-05T06:16:01.307Z,48.00
2019-04-05T06:17:01.300Z,48.00
2019-04-05T06:18:04.983Z,48.00
2019-04-05T06:19:01.297Z,48.00
2019-04-05T06:20:01.319Z,48.00
2019-04-05T06:21:03.460Z,48.00
2019-04-05T06:22:01.252Z,48.00
2019-04-05T06:23:01.234Z,48.10
2019-04-05T06:24:01.230Z,48.10
2019-04-05T06:25:01.275Z,48.00
2019-04-05T06:26:01.240Z,48.00
2019-04-05T06:27:01.200Z,48.00
2019-04-05T06:28:01.182Z,48.00
2019-04-05T06:29:01.179Z,48.00
2019-04-05T06:30:01.168Z,48.00
2019-04-05T06:31:01.322Z,48.00
2019-04-05T06:32:01.157Z,48.00
2019-04-05T06:33:01.168Z,48.00
2019-04-05T06:34:01.124Z,48.00
2019-04-05T06:35:01.111Z,48.00
2019-04-05T06:36:01.108Z,48.00
2019-04-05T06:37:01.125Z,48.00
2019-04-05T06:38:01.080Z,48.00
2019-04-05T06:39:01.067Z,48.00
2019-04-05T06:40:01.065Z,48.00
2019-04-05T06:41:01.047Z,48.00
2019-04-05T06:42:01.076Z,48.00
2019-04-05T06:43:01.033Z,48.00
2019-04-05T06:44:01.016Z,48.00
2019-04-05T06:45:01.013Z,48.00
2019-04-05T06:46:01.123Z,48.02
2019-04-05T06:47:00.988Z,48.00
2019-04-05T06:48:01.014Z,48.00
2019-04-05T06:49:00.963Z,48.00
2019-04-05T06:50:00.965Z,47.90
2019-04-05T06:51:00.956Z,47.92
2019-04-05T06:52:00.962Z,47.92
2019-04-05T06:53:00.963Z,47.92
2019-04-05T06:54:03.356Z,47.92
2019-04-05T06:55:00.901Z,47.92
2019-04-05T06:56:00.894Z,47.92
2019-04-05T06:57:00.886Z,47.92
2019-04-05T06:58:00.889Z,47.92
2019-04-05T06:59:00.907Z,47.90
2019-04-05T07:00:00.848Z,47.92
2019-04-05T07:01:00.841Z,47.82
2019-04-05T07:02:00.829Z,47.82
2019-04-05T07:03:00.816Z,47.82
2019-04-05T07:04:00.806Z,47.92
2019-04-05T07:05:00.839Z,47.92
2019-04-05T07:06:00.785Z,47.92
2019-04-05T07:07:00.782Z,47.92
2019-04-05T07:08:00.769Z,47.92
2019-04-05T07:09:00.759Z,47.92
2019-04-05T07:10:00.749Z,47.92
2019-04-05T07:11:00.765Z,47.92
2019-04-05T07:12:00.730Z,47.92
2019-04-05T07:13:00.783Z,47.92
2019-04-05T07:14:00.708Z,47.92
2019-04-05T07:15:00.708Z,47.92
2019-04-05T07:16:00.685Z,47.92
2019-04-05T07:17:00.718Z,47.92
2019-04-05T07:18:00.668Z,47.92
2019-04-05T07:19:00.651Z,47.92
2019-04-05T07:20:00.637Z,47.92
2019-04-05T07:21:00.628Z,47.92
2019-04-05T07:22:00.624Z,47.92
2019-04-05T07:23:00.837Z,47.90
2019-04-05T07:24:00.600Z,47.92
2019-04-05T07:25:00.593Z,47.92
2019-04-05T07:26:00.587Z,47.92
2019-04-05T07:27:00.569Z,47.92
2019-04-05T07:28:00.559Z,47.92
2019-04-05T07:29:00.599Z,47.92
2019-04-05T07:30:00.548Z,47.92
2019-04-05T07:31:00.528Z,47.92
2019-04-05T07:32:00.520Z,47.92
2019-04-05T07:33:00.510Z,47.92
2019-04-05T07:34:00.497Z,47.90
2019-04-05T07:35:00.532Z,47.90
2019-04-05T07:36:03.355Z,47.90
2019-04-05T07:37:00.467Z,47.90
2019-04-05T07:38:00.478Z,47.80
2019-04-05T07:39:00.479Z,47.80
2019-04-05T07:40:00.431Z,47.80
2019-04-05T07:41:00.418Z,47.80
2019-04-05T07:42:00.422Z,47.80
2019-04-05T07:43:00.402Z,47.80
2019-04-05T07:44:00.610Z,47.80
2019-04-05T07:45:00.376Z,47.80
2019-04-05T07:46:00.377Z,47.80
2019-04-05T07:47:00.363Z,47.80
2019-04-05T07:48:00.367Z,47.80
2019-04-05T07:49:00.339Z,47.80
2019-04-05T07:50:00.363Z,47.80
2019-04-05T07:51:00.319Z,47.80
2019-04-05T07:52:00.305Z,47.80
2019-04-05T07:53:00.296Z,47.70
2019-04-05T07:54:00.281Z,47.70
2019-04-05T07:55:00.311Z,47.70
2019-04-05T07:56:00.267Z,47.70
2019-04-05T07:57:00.253Z,47.70
2019-04-05T07:58:00.243Z,47.70
2019-04-05T07:59:00.228Z,47.70
2019-04-05T08:00:00.227Z,47.70
2019-04-05T08:01:00.271Z,47.70
2019-04-05T08:02:00.203Z,47.70
2019-04-05T08:03:00.189Z,47.80
2019-04-05T08:04:00.182Z,48.00
2019-04-05T08:05:00.174Z,48.00
2019-04-05T08:06:00.161Z,48.00
2019-04-05T08:07:00.187Z,48.20
2019-04-05T08:08:00.140Z,48.20
2019-04-05T08:09:02.293Z,48.30
2019-04-05T08:10:02.863Z,48.20
2019-04-05T08:11:00.112Z,48.20
2019-04-05T08:12:00.104Z,48.20
2019-04-05T08:13:00.090Z,48.20
2019-04-05T08:14:00.080Z,48.10
2019-04-05T08:15:00.102Z,48.10
2019-04-05T08:16:01.395Z,48.10
2019-04-05T08:17:00.045Z,48.00
2019-04-05T08:18:00.030Z,48.00
2019-04-05T08:19:00.024Z,47.90
2019-04-05T08:20:00.012Z,47.90
2019-04-05T08:21:00.052Z,47.90
2019-04-05T08:21:59.996Z,47.90
2019-04-05T08:22:59.985Z,47.90
2019-04-05T08:23:59.975Z,47.80
2019-04-05T08:24:59.965Z,47.80
2019-04-05T08:25:59.951Z,47.80
2019-04-05T08:26:59.978Z,47.80
2019-04-05T08:27:59.934Z,47.80
2019-04-05T08:28:59.921Z,47.80
2019-04-05T08:29:59.907Z,47.80
2019-04-05T08:30:59.902Z,47.80
2019-04-05T08:31:59.884Z,47.80
2019-04-05T08:32:59.908Z,47.80
2019-04-05T08:33:59.863Z,47.80
2019-04-05T08:34:59.859Z,47.80
2019-04-05T08:35:59.846Z,47.80
2019-04-05T08:36:59.837Z,47.80
2019-04-05T08:37:59.825Z,47.70
2019-04-05T08:38:59.865Z,47.70
2019-04-05T08:39:59.807Z,47.70
2019-04-05T08:40:59.796Z,47.80
2019-04-05T08:41:59.784Z,47.88
2019-04-05T08:42:59.773Z,47.90
2019-04-05T08:43:59.769Z,47.80
2019-04-05T08:44:59.783Z,47.80
2019-04-05T08:45:59.745Z,47.80
2019-04-05T08:46:59.732Z,47.80
2019-04-05T08:47:59.722Z,47.80
2019-04-05T08:49:10.065Z,47.70
2019-04-05T08:50:00.843Z,47.70
2019-04-05T08:50:59.688Z,47.70
2019-04-05T08:51:59.700Z,47.80
2019-04-05T08:52:59.668Z,47.90
2019-04-05T08:53:59.655Z,47.80
2019-04-05T08:54:59.641Z,47.90
2019-04-05T08:55:59.687Z,47.80
2019-04-05T08:56:59.623Z,47.90
2019-04-05T08:57:59.612Z,47.90
2019-04-05T08:58:59.599Z,47.90
2019-04-05T08:59:59.587Z,47.90
2019-04-05T09:00:59.582Z,47.90
2019-04-05T09:01:59.621Z,47.80
2019-04-05T09:02:59.556Z,47.80
2019-04-05T09:03:59.546Z,47.80
2019-04-05T09:04:59.540Z,47.80
2019-04-05T09:05:59.525Z,47.80
2019-04-05T09:06:59.534Z,47.80
2019-04-05T09:07:59.542Z,47.80
2019-04-05T09:08:59.501Z,47.80
2019-04-05T09:09:59.481Z,47.80
2019-04-05T09:10:59.484Z,47.80
2019-04-05T09:11:59.465Z,47.80
2019-04-05T09:12:59.502Z,47.80
2019-04-05T09:13:59.446Z,47.80
2019-04-05T09:14:59.430Z,47.70
2019-04-05T09:15:59.448Z,47.80
2019-04-05T09:16:59.437Z,47.77
2019-04-05T09:17:59.401Z,47.67
2019-04-05T09:18:59.421Z,47.67
2019-04-05T09:19:59.381Z,47.67
2019-04-05T09:20:59.370Z,47.67
2019-04-05T09:21:59.360Z,47.67
2019-04-05T09:22:59.346Z,47.67
2019-04-05T09:23:59.620Z,47.67
2019-04-05T09:24:59.378Z,47.67
2019-04-05T09:25:59.314Z,47.77
2019-04-05T09:26:59.345Z,47.67
2019-04-05T09:27:59.299Z,47.67
2019-04-05T09:28:59.291Z,47.67
2019-04-05T09:29:59.281Z,47.67
2019-04-05T09:30:59.261Z,47.67
2019-04-05T09:31:59.288Z,47.67
2019-04-05T09:32:59.249Z,47.77
2019-04-05T09:33:59.233Z,47.77
2019-04-05T09:34:59.221Z,47.77
2019-04-05T09:35:59.207Z,47.67
2019-04-05T09:36:59.237Z,47.77
2019-04-05T09:37:59.187Z,47.70
2019-04-05T09:38:59.174Z,47.80
2019-04-05T09:39:59.177Z,47.67
2019-04-05T09:40:59.160Z,47.77
2019-04-05T09:41:59.143Z,47.80
2019-04-05T09:42:59.176Z,47.77
2019-04-05T09:43:59.125Z,47.70
2019-04-05T09:44:59.115Z,47.70
2019-04-05T09:45:59.107Z,47.77
2019-04-05T09:46:59.089Z,47.77
2019-04-05T09:47:59.085Z,47.77
2019-04-05T09:48:59.101Z,47.77
2019-04-05T09:49:59.060Z,47.77
2019-04-05T09:50:59.050Z,47.77
2019-04-05T09:51:59.083Z,47.67
2019-04-05T09:52:59.026Z,47.77
2019-04-05T09:53:59.019Z,47.77
2019-04-05T09:54:59.006Z,47.77
2019-04-05T09:55:58.996Z,47.77
2019-04-05T09:56:59.024Z,47.77
2019-04-05T09:57:58.971Z,47.77
2019-04-05T09:58:58.969Z,47.88
2019-04-05T09:59:58.958Z,47.88
2019-04-05T10:00:58.945Z,47.88
2019-04-05T10:01:58.968Z,47.88
2019-04-05T10:02:58.923Z,47.97
2019-04-05T10:03:58.910Z,47.97
2019-04-05T10:04:58.898Z,47.97
2019-04-05T10:05:58.889Z,48.08
2019-04-05T10:06:58.883Z,48.08
2019-04-05T10:07:59.103Z,48.08
2019-04-05T10:08:58.859Z,48.08
2019-04-05T10:09:58.843Z,48.08
2019-04-05T10:10:58.838Z,48.08
2019-04-05T10:11:58.828Z,48.08
2019-04-05T10:12:58.833Z,48.08
2019-04-05T10:13:58.861Z,48.08
2019-04-05T10:14:58.798Z,48.08
2019-04-05T10:15:58.782Z,48.08
2019-04-05T10:16:58.805Z,48.08
2019-04-05T10:17:58.768Z,48.18
2019-04-05T10:18:58.747Z,48.08
2019-04-05T10:19:58.771Z,48.08
2019-04-05T10:20:58.731Z,48.18
2019-04-05T10:21:58.720Z,48.18
2019-04-05T10:22:58.715Z,48.18
2019-04-05T10:23:58.696Z,48.18
2019-04-05T10:24:58.730Z,48.18
2019-04-05T10:25:58.690Z,48.18
2019-04-05T10:26:58.672Z,48.18
2019-04-05T10:27:58.657Z,48.18
2019-04-05T10:28:58.646Z,48.18
2019-04-05T10:29:58.638Z,48.18
2019-04-05T10:30:58.663Z,48.18
2019-04-05T10:31:58.617Z,48.18
2019-04-05T10:32:58.605Z,48.18
2019-04-05T10:33:58.592Z,48.18
2019-04-05T10:34:58.587Z,48.18
2019-04-05T10:35:58.582Z,48.18
2019-04-05T10:36:58.600Z,48.18
2019-04-05T10:37:58.629Z,48.18
2019-04-05T10:38:58.538Z,48.18
2019-04-05T10:39:58.525Z,48.18
2019-04-05T10:40:58.517Z,48.18
2019-04-05T10:42:03.735Z,48.18
2019-04-05T10:42:59.536Z,48.18
2019-04-05T10:43:58.646Z,48.18
2019-04-05T10:44:58.479Z,48.18
2019-04-05T10:45:58.470Z,48.18
2019-04-05T10:46:58.461Z,48.18
2019-04-05T10:47:58.443Z,48.18
2019-04-05T10:48:58.472Z,48.18
2019-04-05T10:50:03.229Z,48.18
2019-04-05T10:50:59.411Z,48.18
2019-04-05T10:51:58.402Z,48.18
2019-04-05T10:52:58.395Z,48.18
2019-04-05T10:53:58.614Z,48.18
2019-04-05T10:54:58.375Z,48.18
2019-04-05T10:55:58.364Z,48.18
2019-04-05T10:56:58.353Z,48.18
2019-04-05T10:57:58.338Z,48.28
2019-04-05T10:58:58.346Z,48.28
2019-04-05T10:59:58.353Z,48.28
2019-04-05T11:00:58.308Z,48.38
2019-04-05T11:01:58.300Z,48.38
2019-04-05T11:02:58.285Z,48.38
2019-04-05T11:03:58.277Z,48.38
2019-04-05T11:04:58.266Z,48.28
2019-04-05T11:05:58.291Z,48.28
2019-04-05T11:06:58.249Z,48.28
2019-04-05T11:07:58.241Z,48.28
2019-04-05T11:08:58.238Z,48.28
2019-04-05T11:09:58.218Z,48.28
2019-04-05T11:10:58.247Z,48.28
2019-04-05T11:11:58.196Z,48.38
2019-04-05T11:12:58.214Z,48.28
2019-04-05T11:13:58.169Z,48.28
2019-04-05T11:14:58.165Z,48.28
2019-04-05T11:15:58.189Z,48.28
2019-04-05T11:16:58.926Z,48.28
2019-04-05T11:17:58.126Z,48.28
2019-04-05T11:18:58.121Z,48.38
2019-04-05T11:19:58.110Z,48.38
2019-04-05T11:20:58.097Z,48.38
2019-04-05T11:21:58.087Z,48.28
2019-04-05T11:22:58.107Z,48.28
2019-04-05T11:23:58.070Z,48.38
2019-04-05T11:24:58.055Z,48.28
2019-04-05T11:25:58.041Z,48.28
2019-04-05T11:26:58.031Z,48.38
2019-04-05T11:27:58.065Z,48.38
2019-04-05T11:28:58.016Z,48.38
2019-04-05T11:29:58.109Z,48.38
2019-04-05T11:30:57.997Z,48.38
2019-04-05T11:31:57.987Z,48.38
2019-04-05T11:32:57.975Z,48.38
2019-04-05T11:33:58.008Z,48.28
2019-04-05T11:34:57.950Z,48.28
2019-04-05T11:35:58.166Z,48.28
2019-04-05T11:36:57.931Z,48.28
2019-04-05T11:37:57.921Z,48.28
2019-04-05T11:38:57.906Z,48.28
2019-04-05T11:39:57.924Z,48.18
2019-04-05T11:40:57.889Z,48.18
2019-04-05T11:41:57.908Z,48.18
2019-04-05T11:42:57.863Z,48.18
2019-04-05T11:43:58.521Z,48.18
2019-04-05T11:44:57.845Z,48.08
2019-04-05T11:45:57.836Z,48.08
2019-04-05T11:46:57.859Z,48.08
2019-04-05T11:47:58.383Z,48.08
2019-04-05T11:48:57.804Z,48.08
2019-04-05T11:49:57.790Z,48.08
2019-04-05T11:50:57.818Z,48.08
2019-04-05T11:51:57.773Z,48.08
2019-04-05T11:52:57.755Z,48.08
2019-04-05T11:53:57.752Z,48.08
2019-04-05T11:54:57.738Z,47.97
2019-04-05T11:55:57.768Z,47.97
2019-04-05T11:56:57.714Z,47.97
2019-04-05T11:57:57.709Z,47.97
2019-04-05T11:58:57.700Z,47.97
2019-04-05T11:59:57.688Z,48.08
2019-04-05T12:00:57.676Z,48.08
2019-04-05T12:01:57.710Z,48.08
2019-04-05T12:02:57.650Z,48.08
2019-04-05T12:03:57.645Z,48.08
2019-04-05T12:04:57.630Z,48.08
2019-04-05T12:05:57.622Z,48.08
2019-04-05T12:06:57.615Z,48.08
2019-04-05T12:08:00.957Z,48.08
2019-04-05T12:08:59.317Z,48.08
2019-04-05T12:09:57.583Z,48.18
2019-04-05T12:10:57.567Z,48.28
2019-04-05T12:11:57.565Z,48.38
2019-04-05T12:12:57.600Z,48.38
2019-04-05T12:13:57.534Z,48.38
2019-04-05T12:14:57.527Z,48.38
2019-04-05T12:15:58.263Z,48.48
2019-04-05T12:16:57.506Z,48.48
2019-04-05T12:17:57.498Z,48.38
2019-04-05T12:18:58.926Z,48.48
2019-04-05T12:19:57.505Z,48.48
2019-04-05T12:21:00.351Z,48.48
2019-04-05T12:21:57.449Z,48.48
2019-04-05T12:22:57.451Z,48.48
2019-04-05T12:23:57.436Z,48.48
2019-04-05T12:24:57.429Z,48.48
2019-04-05T12:25:57.477Z,48.48
2019-04-05T12:26:57.404Z,48.48
2019-04-05T12:28:06.243Z,48.48
2019-04-05T12:28:58.386Z,48.48
2019-04-05T12:29:57.371Z,48.48
2019-04-05T12:30:57.358Z,48.48
2019-04-05T12:31:57.382Z,48.48
2019-04-05T12:32:57.348Z,48.48
2019-04-05T12:33:57.323Z,48.48
2019-04-05T12:34:57.316Z,48.48
2019-04-05T12:35:57.304Z,48.48
2019-04-05T12:36:57.293Z,48.48
2019-04-05T12:37:57.316Z,48.58
2019-04-05T12:38:57.278Z,48.58
2019-04-05T12:39:57.263Z,48.58
2019-04-05T12:40:57.249Z,48.48
2019-04-05T12:41:57.245Z,48.58
2019-04-05T12:42:57.271Z,48.58
2019-04-05T12:43:57.216Z,48.58
2019-04-05T12:44:57.209Z,48.58
2019-04-05T12:45:57.196Z,48.58
2019-04-05T12:46:57.189Z,48.48
2019-04-05T12:47:59.153Z,48.48
2019-04-05T12:48:57.197Z,48.48
2019-04-05T12:49:57.151Z,48.48
2019-04-05T12:51:01.395Z,48.48
2019-04-05T12:51:57.137Z,48.48